createdAt,value
2018-06-30T00:01:37.576Z,80.86
2018-06-30T00:04:07.545Z,81.21
2018-06-30T00:06:37.210Z,81.31
2018-06-30T00:09:09.652Z,82.17
2018-06-30T00:11:39.493Z,82.72
2018-06-30T00:14:08.848Z,82.11
2018-06-30T00:16:38.625Z,82.55
2018-06-30T00:19:08.298Z,84.39
2018-06-30T00:21:38.089Z,84.40
2018-06-30T00:24:07.985Z,84.53
2018-06-30T00:26:37.702Z,84.60
2018-06-30T00:29:07.505Z,85.36
2018-06-30T00:31:37.357Z,85.91
2018-06-30T00:34:07.148Z,85.55
2018-06-30T00:36:36.799Z,85.63
2018-06-30T00:39:09.704Z,85.60
2018-06-30T00:41:39.448Z,86.10
2018-06-30T00:44:09.119Z,86.17
2018-06-30T00:46:38.773Z,86.01
2018-06-30T00:49:08.534Z,85.84
2018-06-30T00:51:38.202Z,86.52
2018-06-30T00:54:07.962Z,86.64
2018-06-30T00:56:37.673Z,87.26
2018-06-30T00:59:07.829Z,87.01
2018-06-30T01:01:37.181Z,86.89
2018-06-30T01:04:06.533Z,86.77
2018-06-30T01:06:35.966Z,87.63
2018-06-30T01:09:07.645Z,87.55
2018-06-30T01:11:37.390Z,87.36
2018-06-30T01:14:07.113Z,87.76
2018-06-30T01:16:36.911Z,88.48
2018-06-30T01:19:06.633Z,88.15
2018-06-30T01:21:36.461Z,88.27
2018-06-30T01:24:06.736Z,89.17
2018-06-30T01:26:36.541Z,89.56
2018-06-30T01:29:06.471Z,89.68
2018-06-30T01:31:36.148Z,89.60
2018-06-30T01:34:06.290Z,89.23
2018-06-30T01:36:35.987Z,89.70
2018-06-30T01:39:09.513Z,89.75
2018-06-30T01:41:39.285Z,89.52
2018-06-30T01:44:08.921Z,89.70
2018-06-30T01:46:38.757Z,90.05
2018-06-30T01:49:08.447Z,90.00
2018-06-30T01:51:38.275Z,89.65
2018-06-30T01:54:07.985Z,89.87
2018-06-30T01:56:37.685Z,89.83
2018-06-30T01:59:07.370Z,89.60
2018-06-30T02:01:37.160Z,89.63
2018-06-30T02:04:07.465Z,90.15
2018-06-30T02:06:37.160Z,89.70
2018-06-30T02:09:10.038Z,90.50
2018-06-30T02:11:39.893Z,90.69
2018-06-30T02:14:10.343Z,90.94
2018-06-30T02:16:40.029Z,90.97
2018-06-30T02:19:09.702Z,91.15
2018-06-30T02:21:39.452Z,91.40
2018-06-30T02:24:08.856Z,91.78
2018-06-30T02:26:38.561Z,91.51
2018-06-30T02:29:08.266Z,91.46
2018-06-30T02:31:37.952Z,91.19
2018-06-30T02:34:07.844Z,91.03
2018-06-30T02:36:37.583Z,91.09
2018-06-30T02:39:09.043Z,91.63
2018-06-30T02:41:38.738Z,91.82
2018-06-30T02:44:08.401Z,91.67
2018-06-30T02:46:38.129Z,91.95
2018-06-30T02:49:07.881Z,92.64
2018-06-30T02:51:37.610Z,92.83
2018-06-30T02:54:07.305Z,92.95
2018-06-30T02:56:37.108Z,91.96
2018-06-30T02:59:06.981Z,92.40
2018-06-30T03:01:36.686Z,92.28
2018-06-30T03:04:06.416Z,92.85
2018-06-30T03:06:36.133Z,93.12
2018-06-30T03:09:09.106Z,93.12
2018-06-30T03:11:39.021Z,93.51
2018-06-30T03:14:08.800Z,93.65
2018-06-30T03:16:38.509Z,93.98
2018-06-30T03:19:08.140Z,93.76
2018-06-30T03:21:37.868Z,94.77
2018-06-30T03:24:07.175Z,94.81
2018-06-30T03:26:36.899Z,94.58
2018-06-30T03:29:06.652Z,95.40
2018-06-30T03:31:36.422Z,95.45
2018-06-30T03:34:06.185Z,95.51
2018-06-30T03:36:35.596Z,95.00
2018-06-30T03:39:07.796Z,95.23
2018-06-30T03:41:37.647Z,95.02
2018-06-30T03:44:07.463Z,94.89
2018-06-30T03:46:37.113Z,95.44
2018-06-30T03:49:06.922Z,95.14
2018-06-30T03:51:36.550Z,95.40
2018-06-30T03:54:06.198Z,95.74
2018-06-30T03:56:35.849Z,95.68
2018-06-30T03:59:05.565Z,95.31
2018-06-30T04:01:35.260Z,95.45
2018-06-30T04:04:04.945Z,95.22
2018-06-30T04:06:34.660Z,95.50
2018-06-30T04:09:06.129Z,95.12
2018-06-30T04:11:35.952Z,95.05
2018-06-30T04:14:06.289Z,94.94
2018-06-30T04:16:36.271Z,95.22
2018-06-30T04:19:10.228Z,94.44
2018-06-30T04:21:40.029Z,94.84
2018-06-30T04:24:09.675Z,94.46
2018-06-30T04:26:39.937Z,94.56
2018-06-30T04:29:09.761Z,94.67
2018-06-30T04:31:39.445Z,93.98
2018-06-30T04:34:09.539Z,93.91
2018-06-30T04:36:39.213Z,93.78
2018-06-30T04:39:10.370Z,93.73
2018-06-30T04:41:40.066Z,93.12
2018-06-30T04:44:09.854Z,93.42
2018-06-30T04:46:39.625Z,93.07
2018-06-30T04:49:09.292Z,92.39
2018-06-30T04:51:39.084Z,92.74
2018-06-30T04:54:08.926Z,91.48
2018-06-30T04:56:38.328Z,92.00
2018-06-30T04:59:08.125Z,90.58
2018-06-30T05:01:37.782Z,91.20
2018-06-30T05:04:07.154Z,90.28
2018-06-30T05:06:37.018Z,89.95
2018-06-30T05:09:08.919Z,89.16
2018-06-30T05:11:38.537Z,88.83
2018-06-30T05:14:08.285Z,88.26
2018-06-30T05:16:37.718Z,88.42
2018-06-30T05:19:07.392Z,87.52
2018-06-30T05:21:36.881Z,87.49
2018-06-30T05:24:06.639Z,85.92
2018-06-30T05:26:36.432Z,86.24
2018-06-30T05:29:06.294Z,86.35
2018-06-30T05:31:36.009Z,85.66
2018-06-30T05:34:05.924Z,85.16
2018-06-30T05:36:35.616Z,80.78
2018-06-30T05:39:07.706Z,77.31
2018-06-30T05:41:37.878Z,73.01
2018-06-30T05:44:07.276Z,74.45
2018-06-30T05:46:36.949Z,72.11
2018-06-30T05:49:06.662Z,70.93
2018-06-30T05:51:36.362Z,72.01
2018-06-30T05:54:06.121Z,71.09
2018-06-30T05:56:35.958Z,69.22
2018-06-30T05:59:05.467Z,69.86
2018-06-30T06:01:34.800Z,70.04
2018-06-30T06:04:04.542Z,67.51
2018-06-30T06:06:34.254Z,67.58
2018-06-30T06:09:06.145Z,67.51
2018-06-30T06:11:35.902Z,67.48
2018-06-30T06:14:05.897Z,66.19
2018-06-30T06:16:35.644Z,66.97
2018-06-30T06:19:05.729Z,66.97
2018-06-30T06:21:35.185Z,65.19
2018-06-30T06:24:06.477Z,65.17
2018-06-30T06:26:36.341Z,66.14
2018-06-30T06:29:06.508Z,65.17
2018-06-30T06:31:36.295Z,64.02
2018-06-30T06:34:06.292Z,63.66
2018-06-30T06:36:35.995Z,64.13
2018-06-30T06:39:08.502Z,63.08
2018-06-30T06:41:38.339Z,61.80
2018-06-30T06:44:08.032Z,62.62
2018-06-30T06:46:37.722Z,61.72
2018-06-30T06:49:07.553Z,61.22
2018-06-30T06:51:37.313Z,59.55
2018-06-30T06:54:07.092Z,60.54
2018-06-30T06:56:36.797Z,57.24
2018-06-30T06:59:06.504Z,57.86
2018-06-30T07:01:36.287Z,56.59
2018-06-30T07:04:06.061Z,56.00
2018-06-30T07:06:35.833Z,54.80
2018-06-30T07:09:08.659Z,55.04
2018-06-30T07:11:38.846Z,51.91
2018-06-30T07:14:08.958Z,50.32
2018-06-30T07:16:38.905Z,49.27
2018-06-30T07:19:08.684Z,46.38
2018-06-30T07:21:38.571Z,48.24
2018-06-30T07:24:08.409Z,46.85
2018-06-30T07:26:37.735Z,43.78
2018-06-30T07:29:07.598Z,44.75
2018-06-30T07:31:37.414Z,43.82
2018-06-30T07:34:08.382Z,41.80
2018-06-30T07:36:38.079Z,38.21
2018-06-30T07:39:10.295Z,37.50
2018-06-30T07:41:40.941Z,38.41
2018-06-30T07:44:10.655Z,36.96
2018-06-30T07:46:40.445Z,35.51
2018-06-30T07:49:09.842Z,37.66
2018-06-30T07:51:41.572Z,38.55
2018-06-30T07:54:11.964Z,39.11
2018-06-30T07:56:41.686Z,38.98
2018-06-30T07:59:11.459Z,41.21
2018-06-30T08:01:41.271Z,40.27
2018-06-30T08:04:10.976Z,39.88
2018-06-30T08:06:40.659Z,39.38
2018-06-30T08:09:11.054Z,38.62
2018-06-30T08:11:41.805Z,37.96
2018-06-30T08:14:11.724Z,40.83
2018-06-30T08:16:41.390Z,38.92
2018-06-30T08:19:11.034Z,40.43
2018-06-30T08:21:40.983Z,39.21
2018-06-30T08:24:10.883Z,38.22
2018-06-30T08:26:40.572Z,39.41
2018-06-30T08:29:10.109Z,37.97
2018-06-30T08:31:39.871Z,38.40
2018-06-30T08:34:09.730Z,38.76
2018-06-30T08:36:39.406Z,37.43
2018-06-30T08:39:11.328Z,39.66
2018-06-30T08:41:41.336Z,37.32
2018-06-30T08:44:11.134Z,35.49
2018-06-30T08:46:41.001Z,34.22
2018-06-30T08:49:10.748Z,35.70
2018-06-30T08:51:41.487Z,36.55
2018-06-30T08:54:11.801Z,34.67
2018-06-30T08:56:41.529Z,33.84
2018-06-30T08:59:10.936Z,32.73
2018-06-30T09:01:40.304Z,34.30
2018-06-30T09:04:10.083Z,34.90
2018-06-30T09:06:39.893Z,34.35
2018-06-30T09:09:11.102Z,32.64
2018-06-30T09:11:41.290Z,33.52
2018-06-30T09:14:11.261Z,34.01
2018-06-30T09:16:42.289Z,35.04
2018-06-30T09:19:12.107Z,33.65
2018-06-30T09:21:41.785Z,32.94
2018-06-30T09:24:11.160Z,31.91
2018-06-30T09:26:40.877Z,33.88
2018-06-30T09:29:10.785Z,31.76
2018-06-30T09:31:40.729Z,31.94
2018-06-30T09:34:10.474Z,29.10
2018-06-30T09:36:40.225Z,30.40
2018-06-30T09:39:11.364Z,27.99
2018-06-30T09:41:41.430Z,30.98
2018-06-30T09:44:11.116Z,29.83
2018-06-30T09:46:40.948Z,32.12
2018-06-30T09:49:10.622Z,30.27
2018-06-30T09:51:40.028Z,29.17
2018-06-30T09:54:09.736Z,32.77
2018-06-30T09:56:39.467Z,30.94
2018-06-30T09:59:08.888Z,28.24
2018-06-30T10:01:38.554Z,29.32
2018-06-30T10:04:08.405Z,30.28
2018-06-30T10:06:38.146Z,29.89
2018-06-30T10:09:10.788Z,28.55
2018-06-30T10:11:40.874Z,27.98
2018-06-30T10:14:10.654Z,29.71
2018-06-30T10:16:41.502Z,29.30
2018-06-30T10:19:11.302Z,28.59
2018-06-30T10:21:40.988Z,27.11
2018-06-30T10:24:10.840Z,31.42
2018-06-30T10:26:40.730Z,30.78
2018-06-30T10:29:10.497Z,28.95
2018-06-30T10:31:40.165Z,28.90
2018-06-30T10:34:09.557Z,29.12
2018-06-30T10:36:39.249Z,26.94
2018-06-30T10:39:11.719Z,26.60
2018-06-30T10:41:42.037Z,25.74
2018-06-30T10:44:11.731Z,26.74
2018-06-30T10:46:41.404Z,29.98
2018-06-30T10:49:10.737Z,30.29
2018-06-30T10:51:40.526Z,31.45
2018-06-30T10:54:10.337Z,32.49
2018-06-30T10:56:40.118Z,29.72
2018-06-30T10:59:09.925Z,29.19
2018-06-30T11:01:39.601Z,28.98
2018-06-30T11:04:09.388Z,31.97
2018-06-30T11:06:39.216Z,32.92
2018-06-30T11:09:11.776Z,35.18
2018-06-30T11:11:41.770Z,36.46
2018-06-30T11:14:11.490Z,36.47
2018-06-30T11:16:41.181Z,37.39
2018-06-30T11:19:10.981Z,33.21
2018-06-30T11:21:40.785Z,32.02
2018-06-30T11:24:10.120Z,30.64
2018-06-30T11:26:39.920Z,30.13
2018-06-30T11:29:09.679Z,29.60
2018-06-30T11:31:39.349Z,30.97
2018-06-30T11:34:09.188Z,30.06
2018-06-30T11:36:38.928Z,27.48
2018-06-30T11:39:12.736Z,27.58
2018-06-30T11:41:43.084Z,27.22
2018-06-30T11:44:13.245Z,26.19
2018-06-30T11:46:42.982Z,24.42
2018-06-30T11:49:12.798Z,27.58
2018-06-30T11:51:42.510Z,28.08
2018-06-30T11:54:12.255Z,28.42
2018-06-30T11:56:42.039Z,28.53
2018-06-30T11:59:11.849Z,27.51
2018-06-30T12:01:41.258Z,26.85
2018-06-30T12:04:10.941Z,27.46
2018-06-30T12:06:40.704Z,24.35
2018-06-30T12:09:11.302Z,26.00
2018-06-30T12:11:41.132Z,26.51
2018-06-30T12:14:10.813Z,29.23
2018-06-30T12:16:40.548Z,31.57
2018-06-30T12:19:10.364Z,30.43
2018-06-30T12:21:40.130Z,30.71
2018-06-30T12:24:09.799Z,29.97
2018-06-30T12:26:39.601Z,30.91
2018-06-30T12:29:09.306Z,30.43
2018-06-30T12:31:39.229Z,32.82
2018-06-30T12:34:08.937Z,31.05
2018-06-30T12:36:38.804Z,30.31
2018-06-30T12:39:10.345Z,29.36
2018-06-30T12:41:40.411Z,30.21
2018-06-30T12:44:10.065Z,27.74
2018-06-30T12:46:39.869Z,29.62
2018-06-30T12:49:09.721Z,29.37
2018-06-30T12:51:39.467Z,30.33
2018-06-30T12:54:09.006Z,32.19
2018-06-30T12:56:38.639Z,33.41
2018-06-30T12:59:08.018Z,34.07
2018-06-30T13:01:37.719Z,35.11
2018-06-30T13:04:07.461Z,34.33
2018-06-30T13:06:37.160Z,32.39
2018-06-30T13:09:11.539Z,30.71
2018-06-30T13:11:41.467Z,31.07
2018-06-30T13:14:10.828Z,29.27
2018-06-30T13:16:40.620Z,29.40
2018-06-30T13:19:10.653Z,26.77
2018-06-30T13:21:40.442Z,29.01
2018-06-30T13:24:10.121Z,28.02
2018-06-30T13:26:39.789Z,27.89
2018-06-30T13:29:09.168Z,27.01
2018-06-30T13:31:38.862Z,26.66
2018-06-30T13:34:08.568Z,25.20
2018-06-30T13:36:38.349Z,25.93
2018-06-30T13:39:13.623Z,28.04
2018-06-30T13:41:43.716Z,29.34
2018-06-30T13:44:13.959Z,26.63
2018-06-30T13:46:43.670Z,29.57
2018-06-30T13:49:13.543Z,30.55
2018-06-30T13:51:43.361Z,28.16
2018-06-30T13:54:13.102Z,27.92
2018-06-30T13:56:42.786Z,27.51
2018-06-30T13:59:12.493Z,27.72
2018-06-30T14:01:42.255Z,28.29
2018-06-30T14:04:11.959Z,28.62
2018-06-30T14:06:41.646Z,27.44
2018-06-30T14:09:12.307Z,28.62
2018-06-30T14:11:41.992Z,26.73
2018-06-30T14:14:11.790Z,25.60
2018-06-30T14:16:41.651Z,26.63
2018-06-30T14:19:11.331Z,28.16
2018-06-30T14:21:41.058Z,27.73
2018-06-30T14:24:10.766Z,26.30
2018-06-30T14:26:40.649Z,25.77
2018-06-30T14:29:10.385Z,24.95
2018-06-30T14:31:40.086Z,23.51
2018-06-30T14:34:09.765Z,26.04
2018-06-30T14:36:39.408Z,27.44
2018-06-30T14:39:12.596Z,24.83
2018-06-30T14:41:42.398Z,26.82
2018-06-30T14:44:12.052Z,26.76
2018-06-30T14:46:41.710Z,27.38
2018-06-30T14:49:11.376Z,26.91
2018-06-30T14:51:41.085Z,26.28
2018-06-30T14:54:10.885Z,25.48
2018-06-30T14:56:40.637Z,26.35
2018-06-30T14:59:10.525Z,26.15
2018-06-30T15:01:40.154Z,25.41
2018-06-30T15:04:09.917Z,27.49
2018-06-30T15:06:39.752Z,26.21
2018-06-30T15:09:12.369Z,23.08
2018-06-30T15:11:43.108Z,25.41
2018-06-30T15:14:13.548Z,25.21
2018-06-30T15:16:43.523Z,26.20
2018-06-30T15:19:12.940Z,26.13
2018-06-30T15:21:42.674Z,26.40
2018-06-30T15:24:12.419Z,27.21
2018-06-30T15:26:42.415Z,28.19
2018-06-30T15:29:12.227Z,26.02
2018-06-30T15:31:41.890Z,26.98
2018-06-30T15:34:11.626Z,26.39
2018-06-30T15:36:41.454Z,27.95
2018-06-30T15:39:12.041Z,27.82
2018-06-30T15:41:41.797Z,28.77
2018-06-30T15:44:11.673Z,27.82
2018-06-30T15:46:41.369Z,28.72
2018-06-30T15:49:11.099Z,27.32
2018-06-30T15:51:41.368Z,26.39
2018-06-30T15:54:11.554Z,27.20
2018-06-30T15:56:41.283Z,28.64
2018-06-30T15:59:11.029Z,27.87
2018-06-30T16:01:40.631Z,28.86
2018-06-30T16:04:10.314Z,28.42
2018-06-30T16:06:40.220Z,27.06
2018-06-30T16:09:11.599Z,29.25
2018-06-30T16:11:41.533Z,29.75
2018-06-30T16:14:11.249Z,29.23
2018-06-30T16:16:41.064Z,32.25
2018-06-30T16:19:10.825Z,31.22
2018-06-30T16:21:40.513Z,31.94
2018-06-30T16:24:10.200Z,31.30
2018-06-30T16:26:39.952Z,32.51
2018-06-30T16:29:09.673Z,31.92
2018-06-30T16:31:39.549Z,32.37
2018-06-30T16:34:09.255Z,32.58
2018-06-30T16:36:38.989Z,32.16
2018-06-30T16:39:10.651Z,32.08
2018-06-30T16:41:40.421Z,32.89
2018-06-30T16:44:10.143Z,32.35
2018-06-30T16:46:39.925Z,31.42
2018-06-30T16:49:09.756Z,31.10
2018-06-30T16:51:39.423Z,31.67
2018-06-30T16:54:09.200Z,30.88
2018-06-30T16:56:39.112Z,32.11
2018-06-30T16:59:08.466Z,31.44
2018-06-30T17:01:38.138Z,31.01
2018-06-30T17:04:08.455Z,30.43
2018-06-30T17:06:38.170Z,29.75
2018-06-30T17:09:12.360Z,29.61
2018-06-30T17:11:42.104Z,30.67
2018-06-30T17:14:11.533Z,29.69
2018-06-30T17:16:41.221Z,30.67
2018-06-30T17:19:10.569Z,30.42
2018-06-30T17:21:40.342Z,30.25
2018-06-30T17:24:09.762Z,30.96
2018-06-30T17:26:39.577Z,29.34
2018-06-30T17:29:09.274Z,28.95
2018-06-30T17:31:38.960Z,29.06
2018-06-30T17:34:08.644Z,29.85
2018-06-30T17:36:38.364Z,28.98
2018-06-30T17:39:10.507Z,28.68
2018-06-30T17:41:41.275Z,27.89
2018-06-30T17:44:11.017Z,27.58
2018-06-30T17:46:40.895Z,28.52
2018-06-30T17:49:10.643Z,28.15
2018-06-30T17:51:40.467Z,28.96
2018-06-30T18:03:27.498Z,27.36
2018-06-30T18:05:58.968Z,28.04
2018-06-30T18:08:31.363Z,26.14
2018-06-30T18:11:01.065Z,26.16
2018-06-30T18:13:30.766Z,27.20
2018-06-30T18:16:00.693Z,26.96
2018-06-30T18:18:30.358Z,26.65
2018-06-30T18:21:00.185Z,26.35
2018-06-30T18:23:29.941Z,25.54
2018-06-30T18:25:59.857Z,25.18
2018-06-30T18:28:29.535Z,25.44
2018-06-30T18:30:59.375Z,25.27
2018-06-30T18:33:29.132Z,26.23
2018-06-30T18:35:58.990Z,25.53
2018-06-30T18:38:28.698Z,26.18
2018-06-30T18:40:58.505Z,26.64
2018-06-30T18:43:28.322Z,26.04
2018-06-30T18:45:58.130Z,26.32
2018-06-30T18:48:27.825Z,27.76
2018-06-30T18:50:57.560Z,27.17
2018-06-30T18:53:27.349Z,26.12
2018-06-30T18:55:57.065Z,25.32
2018-06-30T18:58:27.155Z,26.68
2018-06-30T19:00:56.762Z,25.54
2018-06-30T19:03:26.692Z,27.10
2018-06-30T19:05:56.422Z,26.31
2018-06-30T19:08:26.155Z,26.87
2018-06-30T19:10:55.994Z,27.31
2018-06-30T19:13:25.984Z,26.60
2018-06-30T19:15:55.704Z,27.76
2018-06-30T19:18:25.382Z,27.94
2018-06-30T19:20:55.073Z,28.61
2018-06-30T19:23:24.888Z,27.52
2018-06-30T19:25:54.610Z,27.77
2018-06-30T19:28:24.125Z,27.70
2018-06-30T19:30:53.942Z,27.31
2018-06-30T19:33:23.702Z,28.04
2018-06-30T19:35:53.412Z,28.03
2018-06-30T19:38:23.158Z,28.94
2018-06-30T19:40:54.730Z,28.42
2018-06-30T19:43:24.557Z,28.93
2018-06-30T19:45:54.282Z,29.21
2018-06-30T19:48:24.013Z,29.33
2018-06-30T19:50:53.814Z,29.96
2018-06-30T19:53:23.679Z,28.56
2018-06-30T19:55:53.535Z,29.66
2018-06-30T19:58:23.588Z,29.25
2018-06-30T20:00:53.438Z,28.84
2018-06-30T20:03:23.204Z,28.70
2018-06-30T20:05:53.054Z,28.28
2018-06-30T20:08:23.487Z,29.72
2018-06-30T20:10:53.198Z,29.48
2018-06-30T20:13:23.112Z,29.33
2018-06-30T20:15:52.826Z,29.15
2018-06-30T20:18:22.578Z,29.25
2018-06-30T20:20:52.323Z,29.21
2018-06-30T20:23:22.076Z,28.85
2018-06-30T20:25:51.900Z,28.64
2018-06-30T20:28:21.619Z,28.69
2018-06-30T20:30:51.883Z,32.38
2018-06-30T20:33:22.154Z,31.20
2018-06-30T20:35:53.025Z,30.60
2018-06-30T20:38:22.938Z,30.03
2018-06-30T20:40:52.712Z,29.96
2018-06-30T20:43:22.458Z,30.24
2018-06-30T20:45:52.221Z,30.84
2018-06-30T20:48:21.947Z,31.07
2018-06-30T20:50:51.969Z,31.56
2018-06-30T20:53:21.592Z,31.21
2018-06-30T20:55:51.320Z,31.64
2018-06-30T20:58:20.964Z,31.44
2018-06-30T21:00:50.808Z,32.82
2018-06-30T21:03:20.454Z,33.05
2018-06-30T21:05:50.198Z,32.17
2018-06-30T21:08:19.875Z,32.71
2018-06-30T21:10:49.686Z,31.54
2018-06-30T21:13:19.563Z,33.78
2018-06-30T21:15:49.305Z,32.83
2018-06-30T21:18:19.027Z,32.53
2018-06-30T21:20:49.924Z,33.23
2018-06-30T21:23:19.635Z,33.99
2018-06-30T21:25:49.487Z,33.15
2018-06-30T21:28:19.238Z,33.04
2018-06-30T21:30:49.070Z,32.33
2018-06-30T21:33:18.787Z,32.59
2018-06-30T21:35:48.584Z,33.28
2018-06-30T21:38:18.343Z,32.38
2018-06-30T21:40:48.090Z,32.37
2018-06-30T21:43:17.913Z,32.32
2018-06-30T21:45:47.686Z,31.97
2018-06-30T21:48:17.670Z,32.21
2018-06-30T21:50:47.467Z,31.88
2018-06-30T21:53:17.331Z,32.38
2018-06-30T21:55:47.118Z,32.31
2018-06-30T21:58:16.849Z,32.38
2018-06-30T22:00:52.150Z,32.53
2018-06-30T22:03:24.707Z,33.09
2018-06-30T22:05:56.847Z,33.08
2018-06-30T22:08:26.617Z,33.03
2018-06-30T22:10:56.518Z,32.84
2018-06-30T22:13:26.220Z,33.43
2018-06-30T22:15:55.946Z,33.13
2018-06-30T22:18:25.942Z,32.38
2018-06-30T22:20:55.552Z,34.08
2018-06-30T22:23:25.240Z,33.05
2018-06-30T22:25:54.969Z,33.14
2018-06-30T22:28:24.817Z,34.59
2018-06-30T22:30:54.572Z,33.59
2018-06-30T22:33:24.320Z,34.58
2018-06-30T22:35:54.372Z,33.44
2018-06-30T22:38:24.188Z,34.10
2018-06-30T22:40:54.053Z,33.72
2018-06-30T22:43:23.907Z,34.23
2018-06-30T22:45:53.743Z,34.41
2018-06-30T22:48:23.524Z,34.33
2018-06-30T22:50:53.319Z,34.70
2018-06-30T22:53:23.122Z,34.74
2018-06-30T22:55:52.865Z,35.21
2018-06-30T22:58:22.813Z,34.17
2018-06-30T23:00:52.569Z,35.60
2018-06-30T23:03:22.430Z,35.56
2018-06-30T23:05:52.153Z,35.93
2018-06-30T23:08:22.049Z,35.41
2018-06-30T23:10:51.929Z,34.73
2018-06-30T23:13:21.341Z,35.68
2018-06-30T23:15:51.077Z,35.11
2018-06-30T23:18:20.846Z,34.54
2018-06-30T23:20:50.638Z,35.14
2018-06-30T23:23:20.438Z,34.98
2018-06-30T23:25:50.172Z,34.27
2018-06-30T23:28:19.884Z,35.35
2018-06-30T23:30:49.899Z,35.61
2018-06-30T23:33:19.578Z,35.91
2018-06-30T23:35:50.334Z,35.40
2018-06-30T23:38:20.109Z,34.94
2018-06-30T23:40:49.813Z,36.59
2018-06-30T23:43:19.490Z,35.72
2018-06-30T23:45:49.269Z,36.57
2018-06-30T23:48:18.889Z,36.07
2018-06-30T23:50:48.621Z,36.04
2018-06-30T23:53:18.354Z,36.79
2018-06-30T23:55:48.104Z,36.50
2018-06-30T23:58:17.858Z,36.34
